Weather Underground® Station Historical Data


Station Historical Data For Bruceton, TN. (K3JAE's Weather Station - KTNBRUCE2)
 
Daily Summary for:  November 20, 2017 Units:  English    Metric   Both
« Previous Day
Next Day »
Daily Weekly Monthly Yearly Custom
  Current: High: Low: Average:
Temperature: 51.3 °F 54.6 °F 24.5 °F 36.7 °F
Dew Point: 24.5 °F 31.2 °F 21.7 °F 25.6 °F
Humidity: 35% 90% 31% 69%
Wind Speed: 2.0mph 8.1mph 0.0mph 2.2mph
Wind Gust: 2.0mph 8.1mph - -
WindSSW - - SSW
Pressure: 30.11 in 30.32 in 30.10 in -
Precipitation: 0.00 in      
Historical Graphs
 
 
Tabular Data for:  November 20, 2017
Time Temperature Dew Point Pressure Wind Wind Speed Wind Gust Humidity Rainfall Rate (Hourly) solar Conditions
00:03 28.3 °F 25.5 °F 30.29 in Calm     89% 0.00 in 0.0 W/m2 RA
00:09 28.2 °F 25.4 °F 30.29 in Calm     89% 0.00 in 0.0 W/m2 CLR
00:14 28.2 °F 25.4 °F 30.29 in Calm     89% 0.00 in 0.0 W/m2 CLR
00:19 28.3 °F 25.5 °F 30.29 in Calm     89% 0.00 in 0.0 W/m2 CLR
00:29 28.2 °F 25.4 °F 30.28 in Calm     89% 0.00 in 0.0 W/m2 CLR
00:39 27.9 °F 25.1 °F 30.28 in Calm     89% 0.00 in 0.0 W/m2 CLR
00:44 27.9 °F 25.1 °F 30.28 in Calm     89% 0.00 in 0.0 W/m2 CLR
00:49 27.8 °F 25.0 °F 30.28 in Calm     89% 0.00 in 0.0 W/m2 CLR
00:54 27.7 °F 24.9 °F 30.28 in Calm     89% 0.00 in 0.0 W/m2 CLR
00:59 27.6 °F 24.8 °F 30.28 in Calm     89% 0.00 in 0.0 W/m2 CLR
01:04 27.6 °F 24.8 °F 30.28 in Calm     89% 0.00 in 0.0 W/m2 CLR
01:09 27.5 °F 24.7 °F 30.27 in Calm     89% 0.00 in 0.0 W/m2 CLR
01:24 27.3 °F 24.5 °F 30.28 in Calm     89% 0.00 in 0.0 W/m2 CLR
01:29 27.4 °F 24.6 °F 30.28 in Calm     89% 0.00 in 0.0 W/m2 CLR
01:39 27.2 °F 24.4 °F 30.28 in Calm     89% 0.00 in 0.0 W/m2 CLR
01:49 27.1 °F 24.3 °F 30.28 in Calm     89% 0.00 in 0.0 W/m2 CLR
02:04 26.8 °F 24.0 °F 30.28 in Calm     89% 0.00 in 0.0 W/m2 CLR
02:09 26.8 °F 24.0 °F 30.28 in Calm     89% 0.00 in 0.0 W/m2 CLR
02:14 26.7 °F 23.9 °F 30.28 in Calm     89% 0.00 in 0.0 W/m2 CLR
02:19 26.6 °F 23.8 °F 30.28 in Calm     89% 0.00 in 0.0 W/m2 CLR
02:24 26.5 °F 23.7 °F 30.28 in Calm     89% 0.00 in 0.0 W/m2 CLR
02:34 26.4 °F 23.6 °F 30.28 in Calm     89% 0.00 in 0.0 W/m2 CLR
02:44 26.4 °F 23.6 °F 30.28 in Calm     89% 0.00 in 0.0 W/m2 CLR
02:49 26.5 °F 23.7 °F 30.27 in Calm     89% 0.00 in 0.0 W/m2 CLR
02:54 26.5 °F 23.7 °F 30.27 in Calm     89% 0.00 in 0.0 W/m2 CLR
02:59 26.5 °F 23.7 °F 30.27 in Calm     89% 0.00 in 0.0 W/m2 CLR
03:14 26.4 °F 23.6 °F 30.27 in Calm     89% 0.00 in 0.0 W/m2 CLR
03:24 26.3 °F 23.8 °F 30.27 in Calm     90% 0.00 in 0.0 W/m2 CLR
03:29 26.2 °F 23.7 °F 30.26 in Calm     90% 0.00 in 0.0 W/m2 CLR
03:34 26.2 °F 23.4 °F 30.27 in Calm     89% 0.00 in 0.0 W/m2 CLR
03:39 26.1 °F 23.3 °F 30.26 in Calm     89% 0.00 in 0.0 W/m2 CLR
03:44 26.0 °F 23.2 °F 30.27 in Calm     89% 0.00 in 0.0 W/m2 CLR
03:54 25.8 °F 23.3 °F 30.27 in Calm     90% 0.00 in 0.0 W/m2 CLR
03:59 25.7 °F 22.9 °F 30.27 in Calm     89% 0.00 in 0.0 W/m2 CLR
04:04 25.7 °F 22.9 °F 30.27 in Calm     89% 0.00 in 0.0 W/m2 CLR
04:14 25.5 °F 22.7 °F 30.27 in Calm     89% 0.00 in 0.0 W/m2 CLR
04:19 25.5 °F 22.7 °F 30.27 in Calm     89% 0.00 in 0.0 W/m2 CLR
04:24 25.4 °F 22.6 °F 30.27 in Calm     89% 0.00 in 0.0 W/m2 CLR
04:29 25.4 °F 22.9 °F 30.27 in Calm     90% 0.00 in 0.0 W/m2 CLR
04:39 25.3 °F 22.8 °F 30.27 in Calm     90% 0.00 in 0.0 W/m2 CLR
04:44 25.4 °F 22.6 °F 30.27 in Calm     89% 0.00 in 0.0 W/m2 CLR
04:49 25.5 °F 22.7 °F 30.28 in NW 1.2 mph   89% 0.00 in 0.0 W/m2 CLR
05:04 25.6 °F 22.8 °F 30.28 in Calm     89% 0.00 in 0.0 W/m2 CLR
05:16 25.5 °F 22.7 °F 30.28 in Calm     89% 0.00 in 0.0 W/m2 CLR
05:21 25.4 °F 22.9 °F 30.28 in Calm     90% 0.00 in 0.0 W/m2 CLR
05:31 25.3 °F 22.8 °F 30.29 in Calm     90% 0.00 in 0.0 W/m2 CLR
05:51 25.1 °F 22.3 °F 30.29 in Calm     89% 0.00 in 0.0 W/m2 CLR
05:56 25.0 °F 22.5 °F 30.29 in Calm     90% 0.00 in 0.0 W/m2 CLR
06:01 25.0 °F 22.5 °F 30.29 in Calm     90% 0.00 in 0.0 W/m2 CLR
06:06 24.9 °F 22.4 °F 30.29 in Calm     90% 0.00 in 0.0 W/m2 CLR
06:11 24.8 °F 22.3 °F 30.29 in Calm     90% 0.00 in 0.0 W/m2 CLR
06:16 24.7 °F 22.2 °F 30.30 in Calm     90% 0.00 in 0.0 W/m2 CLR
06:21 24.7 °F 22.2 °F 30.30 in Calm     90% 0.00 in 0.0 W/m2 CLR
06:26 24.6 °F 21.8 °F 30.30 in Calm     89% 0.00 in 0.0 W/m2 CLR
06:31 24.6 °F 21.8 °F 30.30 in Calm     89% 0.00 in 0.0 W/m2 CLR
06:36 24.5 °F 21.7 °F 30.30 in Calm     89% 0.00 in 0.0 W/m2 CLR
06:46 24.5 °F 22.0 °F 30.31 in Calm     90% 0.00 in 9.0 W/m2 CLR
06:51 24.5 °F 22.0 °F 30.31 in Calm     90% 0.00 in 11.0 W/m2 CLR
06:56 24.5 °F 22.0 °F 30.31 in Calm     90% 0.00 in 12.0 W/m2 CLR
07:01 24.7 °F 21.9 °F 30.31 in Calm     89% 0.00 in 16.0 W/m2 CLR
07:06 24.8 °F 22.0 °F 30.31 in Calm     89% 0.00 in 18.0 W/m2 CLR
07:16 25.1 °F 22.3 °F 30.31 in Calm     89% 0.00 in 25.0 W/m2 CLR
07:21 25.3 °F 22.5 °F 30.32 in Calm     89% 0.00 in 26.0 W/m2 CLR
07:22 25.4 °F 22.6 °F 30.32 in Calm     89% 0.00 in 28.0 W/m2 CLR
07:27 25.7 °F 22.9 °F 30.32 in Calm     89% 0.00 in 32.0 W/m2 CLR
07:32 26.0 °F 22.9 °F 30.31 in Calm     88% 0.00 in 37.0 W/m2 CLR
07:37 26.5 °F 23.4 °F 30.31 in Calm     88% 0.00 in 37.0 W/m2 CLR
07:42 26.9 °F 23.8 °F 30.31 in Calm     88% 0.00 in 46.0 W/m2 CLR
07:47 27.4 °F 24.0 °F 30.31 in Calm     87% 0.00 in 49.0 W/m2 CLR
07:52 28.0 °F 24.6 °F 30.31 in Calm     87% 0.00 in 56.0 W/m2 CLR
07:57 28.5 °F 25.1 °F 30.31 in Calm   0.1 mph 87% 0.00 in 54.0 W/m2 CLR
08:02 29.2 °F 26.1 °F 30.31 in NW 1.2 mph 1.2 mph 88% 0.00 in 58.0 W/m2 CLR
08:07 29.8 °F 26.7 °F 30.31 in NW 1.2 mph   88% 0.00 in 74.0 W/m2 CLR
08:12 30.6 °F 27.7 °F 30.31 in South 5.8 mph 5.8 mph 89% 0.00 in 86.0 W/m2 CLR
08:17 31.2 °F 28.3 °F 30.31 in South 2.3 mph 2.3 mph 89% 0.00 in 113.0 W/m2 CLR
08:22 31.9 °F 28.8 °F 30.31 in South 4.6 mph 4.6 mph 88% 0.00 in 151.0 W/m2 CLR
08:27 32.4 °F 29.0 °F 30.31 in South 2.3 mph 2.3 mph 87% 0.00 in 90.0 W/m2 CLR
08:37 33.6 °F 29.6 °F 30.31 in SSE 3.5 mph 3.5 mph 85% 0.00 in 91.0 W/m2 CLR
08:42 34.1 °F 30.1 °F 30.31 in South 3.5 mph 3.5 mph 85% 0.00 in 97.0 W/m2 CLR
08:52 35.1 °F 30.8 °F 30.31 in South 3.5 mph 3.5 mph 84% 0.00 in 107.0 W/m2 CLR
09:02 35.8 °F 31.1 °F 30.31 in South 3.0 mph 3.0 mph 83% 0.00 in 135.0 W/m2 CLR
09:07 36.3 °F 31.0 °F 30.31 in South 3.5 mph 3.5 mph 81% 0.00 in 214.0 W/m2 CLR
09:22 38.1 °F 30.5 °F 30.30 in South 4.6 mph 4.6 mph 74% 0.00 in 171.0 W/m2 CLR
09:27 38.8 °F 31.2 °F 30.30 in South 4.6 mph 4.6 mph 74% 0.00 in 278.0 W/m2 CLR
09:37 39.7 °F 30.4 °F 30.30 in South 5.8 mph 5.8 mph 69% 0.00 in 285.0 W/m2 CLR
09:42 40.4 °F 30.3 °F 30.29 in South 5.8 mph 5.8 mph 67% 0.00 in 237.0 W/m2 CLR
09:47 40.9 °F 30.4 °F 30.29 in South 3.5 mph 3.5 mph 66% 0.00 in 253.0 W/m2 CLR
09:52 41.5 °F 29.8 °F 30.29 in SSW 5.8 mph 5.8 mph 63% 0.00 in 236.0 W/m2 CLR
09:57 41.9 °F 30.2 °F 30.29 in SSW 5.8 mph 5.8 mph 63% 0.00 in 234.0 W/m2 CLR
10:01 42.2 °F 30.1 °F 30.29 in SW 4.6 mph 4.6 mph 62% 0.00 in 287.0 W/m2 CLR
10:06 42.6 °F 30.5 °F 30.28 in SW 3.5 mph 3.5 mph 62% 0.00 in 336.0 W/m2 CLR
10:16 43.1 °F 29.7 °F 30.28 in SSW 5.8 mph 5.8 mph 59% 0.00 in 390.0 W/m2 CLR
10:21 43.2 °F 29.0 °F 30.28 in SSW 8.1 mph 8.1 mph 57% 0.00 in 473.0 W/m2 CLR
10:31 43.5 °F 29.3 °F 30.28 in SSW 5.0 mph 5.0 mph 57% 0.00 in 418.0 W/m2 CLR
10:36 43.9 °F 29.2 °F 30.28 in SSW 5.8 mph 5.8 mph 56% 0.00 in 424.0 W/m2 CLR
10:41 44.4 °F 29.2 °F 30.28 in SSW 3.5 mph 3.5 mph 55% 0.00 in 404.0 W/m2 CLR
10:46 44.7 °F 29.5 °F 30.27 in SSW 3.5 mph 3.5 mph 55% 0.00 in 457.0 W/m2 CLR
10:51 45.1 °F 30.3 °F 30.27 in SSW 3.5 mph 3.5 mph 56% 0.00 in 482.0 W/m2 CLR
10:56 45.5 °F 29.3 °F 30.27 in SSW 2.3 mph 2.3 mph 53% 0.00 in 510.0 W/m2 CLR
11:06 45.9 °F 28.8 °F 30.26 in SSW 4.0 mph 4.0 mph 51% 0.00 in 517.0 W/m2 CLR
11:07 45.9 °F 29.2 °F 30.26 in SSW 4.6 mph 4.6 mph 52% 0.00 in 503.0 W/m2 CLR
11:12 46.1 °F 29.4 °F 30.26 in SSW 3.0 mph 3.0 mph 52% 0.00 in 485.0 W/m2 CLR
11:27 47.4 °F 29.7 °F 30.24 in SSW 3.5 mph 3.5 mph 50% 0.00 in 475.0 W/m2 CLR
11:32 47.9 °F 29.1 °F 30.24 in South 5.0 mph 5.0 mph 48% 0.00 in 496.0 W/m2 CLR
11:37 48.1 °F 29.3 °F 30.23 in South 3.0 mph 3.0 mph 48% 0.00 in 424.0 W/m2 CLR
11:42 48.3 °F 28.5 °F 30.23 in South 3.5 mph 3.5 mph 46% 0.00 in 403.0 W/m2 CLR
11:57 49.0 °F 28.6 °F 30.22 in South 3.5 mph 3.5 mph 45% 0.00 in 475.0 W/m2 CLR
12:02 49.0 °F 29.1 °F 30.21 in South 3.5 mph 3.5 mph 46% 0.00 in 489.0 W/m2 CLR
12:07 49.5 °F 29.0 °F 30.21 in SE 4.0 mph 4.0 mph 45% 0.00 in 554.0 W/m2 CLR
12:22 50.3 °F 28.1 °F 30.20 in SSW 3.5 mph 3.5 mph 42% 0.00 in 446.0 W/m2 CLR
12:27 50.1 °F 27.9 °F 30.20 in SSW 6.0 mph 6.0 mph 42% 0.00 in 410.0 W/m2 CLR
12:32 50.3 °F 26.9 °F 30.19 in SSW 2.0 mph 2.0 mph 40% 0.00 in 527.0 W/m2 CLR
12:37 50.9 °F 27.4 °F 30.19 in SSW 3.5 mph 3.5 mph 40% 0.00 in 536.0 W/m2 CLR
12:42 51.6 °F 27.4 °F 30.19 in SSW 3.5 mph 3.5 mph 39% 0.00 in 533.0 W/m2 CLR
12:49 51.5 °F 26.7 °F 30.18 in SSW 5.8 mph 5.8 mph 38% 0.00 in 489.0 W/m2 CLR
12:59 52.2 °F 26.0 °F 30.18 in SSW 4.6 mph 4.6 mph 36% 0.00 in 490.0 W/m2 CLR
13:04 52.2 °F 26.7 °F 30.18 in South 5.8 mph 5.8 mph 37% 0.00 in 526.0 W/m2 CLR
13:14 52.9 °F 26.0 °F 30.18 in South 4.6 mph 4.6 mph 35% 0.00 in 436.0 W/m2 CLR
13:34 54.0 °F 26.2 °F 30.17 in SE 5.8 mph 5.8 mph 34% 0.00 in 454.0 W/m2 CLR
13:39 54.3 °F 25.0 °F 30.17 in SW 2.3 mph 2.3 mph 32% 0.00 in 496.0 W/m2 CLR
13:54 54.4 °F 24.4 °F 30.15 in South 3.5 mph 3.5 mph 31% 0.00 in 316.0 W/m2 CLR
13:59 54.2 °F 25.7 °F 30.16 in SSW 2.3 mph 2.3 mph 33% 0.00 in 369.0 W/m2 CLR
14:04 54.4 °F 26.6 °F 30.15 in SSW 2.3 mph 2.3 mph 34% 0.00 in 420.0 W/m2 CLR
14:14 54.4 °F 26.6 °F 30.15 in South 6.9 mph 6.9 mph 34% 0.00 in 322.0 W/m2 CLR
14:19 54.4 °F 25.9 °F 30.15 in SSW 5.8 mph 5.8 mph 33% 0.00 in 253.0 W/m2 CLR
14:24 54.2 °F 25.7 °F 30.15 in SSW 5.8 mph 5.8 mph 33% 0.00 in 155.0 W/m2 CLR
14:39 53.7 °F 24.5 °F 30.14 in South 8.1 mph 8.1 mph 32% 0.00 in 90.0 W/m2 CLR
14:44 53.8 °F 25.3 °F 30.13 in South 7.0 mph 7.0 mph 33% 0.00 in 104.0 W/m2 CLR
14:59 53.9 °F 26.1 °F 30.12 in SW 6.0 mph 6.0 mph 34% 0.00 in 193.0 W/m2 CLR
15:04 54.2 °F 25.7 °F 30.12 in South 4.6 mph 4.6 mph 33% 0.00 in 178.0 W/m2 CLR
15:09 54.6 °F 26.0 °F 30.12 in SSW 4.6 mph 4.6 mph 33% 0.00 in 40.0 W/m2 CLR
15:14 54.3 °F 25.8 °F 30.12 in South 3.5 mph 3.5 mph 33% 0.00 in 134.0 W/m2 CLR
15:19 54.4 °F 25.9 °F 30.12 in South 2.3 mph 2.3 mph 33% 0.00 in 192.0 W/m2 CLR
15:29 54.4 °F 25.9 °F 30.12 in SSW 4.6 mph 4.6 mph 33% 0.00 in 32.0 W/m2 CLR
15:34 53.9 °F 25.4 °F 30.12 in SSW 6.9 mph 6.9 mph 33% 0.00 in 47.0 W/m2 CLR
15:39 53.6 °F 24.4 °F 30.12 in SSW 4.6 mph 4.6 mph 32% 0.00 in 30.0 W/m2 CLR
15:49 53.4 °F 25.0 °F 30.12 in South 4.6 mph 4.6 mph 33% 0.00 in 60.0 W/m2 CLR
15:59 53.3 °F 25.6 °F 30.12 in South 3.5 mph 3.5 mph 34% 0.00 in 32.0 W/m2 CLR
16:04 52.9 °F 23.8 °F 30.11 in SSW 4.6 mph 4.6 mph 32% 0.00 in 21.0 W/m2 CLR
16:09 52.6 °F 23.5 °F 30.11 in SW 4.6 mph 4.6 mph 32% 0.00 in 21.0 W/m2 CLR
16:14 52.5 °F 23.5 °F 30.11 in South 3.5 mph 3.5 mph 32% 0.00 in 21.0 W/m2 CLR
16:19 52.3 °F 24.0 °F 30.11 in South 3.5 mph 3.5 mph 33% 0.00 in 16.0 W/m2 CLR
16:24 52.0 °F 24.5 °F 30.10 in SSW 3.5 mph 3.5 mph 34% 0.00 in 14.0 W/m2 CLR
16:29 51.6 °F 24.8 °F 30.10 in SSW 3.5 mph 3.5 mph 35% 0.00 in 12.0 W/m2 CLR
16:34 51.3 °F 24.5 °F 30.11 in SSW 2.0 mph 2.0 mph 35% 0.00 in 9.0 W/m2 CLR
Bruceton, TN. NWS Weather Forecast
Compliments of:  Weather Underground - 4.5 mb

Interesting Weather Facts
LEAST RAINIEST U.S. CITY
Which is the least rainy city - Seattle, New York City or Miami? Although on average Seattle is cloudy 227 days a year, it only receives 39 inches of rain per year, compared to New York City (42 inches) and Miami (60 inches)